QFA215 YMML-YSSY
Flight info
| Callsign | QFA215 |
|---|---|
| Flight time | N/A |
| Altitude | 39000 |
| Route | DOSEL2/34 DOSEL Y59 RIVET |
| Aircraft | A339/H-SADE1E2E3GHIJ3J5M1P2RWXY/LB2D1 |
Departure
| Time | 2026-05-04 10:57 |
|---|---|
| Airport | Melbourne Airport (YMML) |
Arrival
| Time | N/A |
|---|---|
| Airport | Sydney Kingsford Smith International Airport (YSSY) |
| Time | Latitude | Longitude | Altitude | Speed | Heading |
|---|---|---|---|---|---|
| 2026-05-04 10:19 | -37.66935 | 144.84586 | 405 ft | 0 kts | 1° |
| 2026-05-04 10:34 | -37.66948 | 144.84584 | 405 ft | 2 kts | 0° |
| 2026-05-04 10:35 | -37.66963 | 144.84584 | 405 ft | 2 kts | 0° |
| 2026-05-04 10:35 | -37.66976 | 144.84584 | 405 ft | 0 kts | 0° |
| 2026-05-04 10:35 | -37.66988 | 144.84584 | 405 ft | 2 kts | 340° |
| 2026-05-04 10:35 | -37.67000 | 144.84595 | 405 ft | 2 kts | 310° |
| 2026-05-04 10:36 | -37.67007 | 144.84610 | 406 ft | 2 kts | 283° |
| 2026-05-04 10:36 | -37.67009 | 144.84624 | 406 ft | 0 kts | 262° |
| 2026-05-04 10:36 | -37.67008 | 144.84631 | 406 ft | 0 kts | 261° |
| 2026-05-04 10:42 | -37.67009 | 144.84619 | 406 ft | 4 kts | 261° |
| 2026-05-04 10:42 | -37.67017 | 144.84541 | 403 ft | 12 kts | 264° |
| 2026-05-04 10:42 | -37.67048 | 144.84422 | 397 ft | 12 kts | 246° |
| 2026-05-04 10:42 | -37.67060 | 144.84309 | 394 ft | 14 kts | 262° |
| 2026-05-04 10:43 | -37.67074 | 144.84186 | 393 ft | 15 kts | 262° |
| 2026-05-04 10:44 | -37.67795 | 144.84172 | 373 ft | 0 kts | 171° |
| 2026-05-04 10:49 | -37.67871 | 144.84119 | 369 ft | 0 kts | 257° |
| 2026-05-04 10:56 | -37.67749 | 144.83955 | 371 ft | 5 kts | 347° |
| 2026-05-04 10:56 | -37.67729 | 144.83951 | 372 ft | 2 kts | 349° |
| 2026-05-04 10:56 | -37.67680 | 144.83939 | 373 ft | 27 kts | 350° |
| 2026-05-04 10:57 | -37.67264 | 144.83864 | 385 ft | 91 kts | 351° |
| 2026-05-04 10:57 | -37.66456 | 144.83713 | 417 ft | 142 kts | 353° |
| 2026-05-04 10:57 | -37.65380 | 144.83543 | 776 ft | 158 kts | 352° |
| 2026-05-04 10:57 | -37.64337 | 144.83353 | 1537 ft | 149 kts | 347° |
| 2026-05-04 10:58 | -37.63343 | 144.83147 | 2266 ft | 144 kts | 345° |
| 2026-05-04 10:58 | -37.62317 | 144.82922 | 2672 ft | 159 kts | 343° |
| 2026-05-04 10:58 | -37.61167 | 144.82674 | 3014 ft | 175 kts | 344° |
| 2026-05-04 10:58 | -37.59902 | 144.82430 | 3328 ft | 194 kts | 351° |
| 2026-05-04 10:59 | -37.58610 | 144.82605 | 3625 ft | 220 kts | 9° |
| 2026-05-04 10:59 | -37.57113 | 144.83394 | 4004 ft | 243 kts | 18° |
| 2026-05-04 10:59 | -37.55543 | 144.84355 | 4402 ft | 261 kts | 20° |
| 2026-05-04 10:59 | -37.53891 | 144.85387 | 5048 ft | 268 kts | 20° |
| 2026-05-04 11:00 | -37.52227 | 144.86423 | 5796 ft | 271 kts | 20° |
| 2026-05-04 11:01 | -37.41029 | 144.96127 | 10801 ft | 313 kts | 51° |
| 2026-05-04 11:02 | -37.39773 | 144.98406 | 11437 ft | 320 kts | 51° |
| 2026-05-04 11:02 | -37.38512 | 145.00694 | 12197 ft | 323 kts | 51° |
| 2026-05-04 11:05 | -37.19021 | 145.35107 | 21680 ft | 372 kts | 50° |
| 2026-05-04 11:06 | -37.17556 | 145.37679 | 22240 ft | 376 kts | 49° |
| 2026-05-04 11:06 | -37.16032 | 145.40346 | 22850 ft | 378 kts | 49° |
| 2026-05-04 11:06 | -37.14518 | 145.42995 | 23384 ft | 382 kts | 49° |
| 2026-05-04 11:06 | -37.12971 | 145.45694 | 23944 ft | 384 kts | 49° |
| 2026-05-04 11:08 | -37.01787 | 145.65158 | 27110 ft | 402 kts | 45° |
| 2026-05-04 11:10 | -36.90175 | 145.85231 | 29761 ft | 416 kts | 44° |
| 2026-05-04 11:12 | -36.78072 | 146.06014 | 32034 ft | 434 kts | 44° |
| 2026-05-04 11:12 | -36.76299 | 146.09053 | 32389 ft | 436 kts | 44° |
| 2026-05-04 11:12 | -36.74501 | 146.12128 | 32671 ft | 439 kts | 44° |
| 2026-05-04 11:12 | -36.72704 | 146.15204 | 32949 ft | 441 kts | 44° |
| 2026-05-04 11:13 | -36.70904 | 146.18277 | 33252 ft | 444 kts | 44° |
| 2026-05-04 11:13 | -36.69087 | 146.21374 | 33510 ft | 447 kts | 44° |
| 2026-05-04 11:13 | -36.67237 | 146.24525 | 33737 ft | 450 kts | 44° |
| 2026-05-04 11:13 | -36.65401 | 146.27655 | 33961 ft | 452 kts | 45° |
| 2026-05-04 11:14 | -36.64775 | 146.28720 | 34043 ft | 452 kts | 45° |
| 2026-05-04 11:14 | -36.61051 | 146.35054 | 34539 ft | 456 kts | 45° |
| 2026-05-04 11:16 | -36.46393 | 146.59869 | 36199 ft | 476 kts | 46° |
| 2026-05-04 11:16 | -36.44454 | 146.63138 | 36411 ft | 478 kts | 46° |
| 2026-05-04 11:16 | -36.42463 | 146.66495 | 36616 ft | 480 kts | 46° |
| 2026-05-04 11:17 | -36.40499 | 146.69800 | 36821 ft | 482 kts | 46° |
| 2026-05-04 11:17 | -36.38505 | 146.73152 | 37062 ft | 483 kts | 46° |
| 2026-05-04 11:19 | -36.24417 | 146.96744 | 38470 ft | 493 kts | 46° |
| 2026-05-04 11:19 | -36.22383 | 147.00136 | 38701 ft | 493 kts | 46° |
| 2026-05-04 11:19 | -36.20340 | 147.03537 | 38916 ft | 494 kts | 46° |
| 2026-05-04 11:19 | -36.18279 | 147.06966 | 39014 ft | 496 kts | 46° |
| 2026-05-04 11:20 | -36.14170 | 147.13796 | 39031 ft | 497 kts | 46° |
| 2026-05-04 11:20 | -36.10051 | 147.20625 | 39018 ft | 497 kts | 46° |
| 2026-05-04 11:22 | -35.93494 | 147.47945 | 39044 ft | 499 kts | 46° |
| 2026-05-04 11:23 | -35.89345 | 147.54758 | 39055 ft | 498 kts | 46° |
| 2026-05-04 11:25 | -35.74777 | 147.78572 | 39058 ft | 498 kts | 45° |
| 2026-05-04 11:25 | -35.70616 | 147.85342 | 39067 ft | 497 kts | 45° |
| 2026-05-04 11:27 | -35.51814 | 148.15775 | 39086 ft | 498 kts | 45° |
| 2026-05-04 11:28 | -35.47637 | 148.22499 | 39065 ft | 497 kts | 45° |
| 2026-05-04 11:28 | -35.43452 | 148.29221 | 39075 ft | 498 kts | 45° |
| 2026-05-04 11:29 | -35.39268 | 148.35931 | 39079 ft | 497 kts | 45° |
| 2026-05-04 11:29 | -35.35085 | 148.42630 | 39069 ft | 497 kts | 45° |
| 2026-05-04 11:33 | -35.05706 | 148.89294 | 39065 ft | 496 kts | 44° |
| 2026-05-04 11:33 | -35.01503 | 148.95924 | 38836 ft | 492 kts | 44° |
| 2026-05-04 11:34 | -34.99447 | 148.99168 | 37757 ft | 494 kts | 44° |
| 2026-05-04 11:34 | -34.97323 | 149.02507 | 36283 ft | 502 kts | 43° |
| 2026-05-04 11:34 | -34.95188 | 149.05858 | 35175 ft | 498 kts | 43° |
| 2026-05-04 11:34 | -34.93131 | 149.09102 | 34597 ft | 484 kts | 43° |
| 2026-05-04 11:35 | -34.91100 | 149.12308 | 33987 ft | 471 kts | 42° |
| 2026-05-04 11:35 | -34.89127 | 149.15402 | 33120 ft | 466 kts | 42° |
| 2026-05-04 11:35 | -34.87198 | 149.18411 | 32260 ft | 460 kts | 42° |
| 2026-05-04 11:35 | -34.85197 | 149.21530 | 31427 ft | 452 kts | 42° |
| 2026-05-04 11:36 | -34.83294 | 149.24501 | 30660 ft | 443 kts | 42° |
| 2026-05-04 11:36 | -34.81426 | 149.27418 | 29877 ft | 434 kts | 42° |
| 2026-05-04 11:36 | -34.79594 | 149.30273 | 29047 ft | 427 kts | 42° |
| 2026-05-04 11:36 | -34.77785 | 149.33090 | 28195 ft | 420 kts | 42° |
| 2026-05-04 11:37 | -34.76010 | 149.35854 | 27348 ft | 414 kts | 43° |
| 2026-05-04 11:37 | -34.74347 | 149.38649 | 26433 ft | 415 kts | 47° |
| 2026-05-04 11:37 | -34.72886 | 149.41513 | 25213 ft | 424 kts | 52° |
| 2026-05-04 11:37 | -34.71479 | 149.44679 | 24055 ft | 425 kts | 53° |
| 2026-05-04 11:38 | -34.70123 | 149.47807 | 23343 ft | 419 kts | 54° |
| 2026-05-04 11:38 | -34.68782 | 149.50915 | 23135 ft | 418 kts | 54° |
| 2026-05-04 11:38 | -34.67424 | 149.54040 | 22925 ft | 419 kts | 54° |
| 2026-05-04 11:38 | -34.66060 | 149.57176 | 22718 ft | 417 kts | 53° |
| 2026-05-04 11:39 | -34.64713 | 149.60265 | 22482 ft | 414 kts | 54° |
| 2026-05-04 11:39 | -34.63366 | 149.63341 | 22137 ft | 413 kts | 54° |
| 2026-05-04 11:40 | -34.55526 | 149.81203 | 20361 ft | 398 kts | 54° |
| 2026-05-04 11:41 | -34.54225 | 149.84158 | 19910 ft | 396 kts | 54° |
| 2026-05-04 11:41 | -34.52932 | 149.87089 | 19503 ft | 392 kts | 54° |
| 2026-05-04 11:41 | -34.51662 | 149.89966 | 19126 ft | 390 kts | 54° |
| 2026-05-04 11:41 | -34.50389 | 149.92851 | 18776 ft | 387 kts | 54° |
| 2026-05-04 11:42 | -34.49121 | 149.95721 | 18457 ft | 384 kts | 54° |
| 2026-05-04 11:42 | -34.47860 | 149.98573 | 18112 ft | 382 kts | 54° |
| 2026-05-04 11:42 | -34.46608 | 150.01405 | 17778 ft | 381 kts | 54° |